createdAt,value
2019-05-25T00:03:16.647Z,61.60
2019-05-25T00:07:22.323Z,61.70
2019-05-25T00:11:28.293Z,61.60
2019-05-25T00:15:34.131Z,62.00
2019-05-25T00:19:39.805Z,62.50
2019-05-25T00:23:45.573Z,63.10
2019-05-25T00:27:51.856Z,63.40
2019-05-25T00:31:57.620Z,63.40
2019-05-25T00:36:03.530Z,63.90
2019-05-25T00:40:10.747Z,63.50
2019-05-25T00:44:16.548Z,64.00
2019-05-25T00:48:22.295Z,63.60
2019-05-25T00:52:28.039Z,64.10
2019-05-25T00:56:33.944Z,64.70
2019-05-25T01:00:39.718Z,65.50
2019-05-25T01:04:45.480Z,66.00
2019-05-25T01:08:51.208Z,65.90
2019-05-25T01:12:57.033Z,66.20
2019-05-25T01:17:02.804Z,66.00
2019-05-25T01:21:08.662Z,67.00
2019-05-25T01:25:15.345Z,67.80
2019-05-25T01:29:21.057Z,68.50
2019-05-25T01:33:26.914Z,67.90
2019-05-25T01:37:32.679Z,67.50
2019-05-25T01:41:38.460Z,67.60
2019-05-25T01:45:44.155Z,67.60
2019-05-25T01:49:49.849Z,68.20
2019-05-25T01:53:55.659Z,68.90
2019-05-25T01:58:01.352Z,69.60
2019-05-25T02:02:07.231Z,69.30
2019-05-25T02:06:12.961Z,69.30
2019-05-25T02:10:18.793Z,69.30
2019-05-25T02:14:24.550Z,69.00
2019-05-25T02:18:30.364Z,70.80
2019-05-25T02:22:36.073Z,71.40
2019-05-25T02:26:41.882Z,71.10
2019-05-25T02:30:47.598Z,71.20
2019-05-25T02:34:53.395Z,71.00
2019-05-25T02:38:59.009Z,70.50
2019-05-25T02:43:05.203Z,70.70
2019-05-25T02:47:10.939Z,71.40
2019-05-25T02:51:16.968Z,71.00
2019-05-25T02:55:33.756Z,71.00
2019-05-25T02:59:30.295Z,71.30
2019-05-25T03:03:36.448Z,70.80
2019-05-25T03:07:45.156Z,70.80
2019-05-25T03:11:53.456Z,70.70
2019-05-25T03:15:59.171Z,71.10
2019-05-25T03:20:07.479Z,71.90
2019-05-25T03:24:13.240Z,71.90
2019-05-25T03:28:19.635Z,73.00
2019-05-25T03:32:25.361Z,72.50
2019-05-25T03:36:31.026Z,72.60
2019-05-25T03:40:36.926Z,72.90
2019-05-25T03:45:19.967Z,73.10
2019-05-25T03:49:25.651Z,72.30
2019-05-25T03:53:31.351Z,73.30
2019-05-25T03:57:37.178Z,74.10
2019-05-25T04:01:42.890Z,74.90
2019-05-25T04:05:48.589Z,74.00
2019-05-25T04:09:54.448Z,74.00
2019-05-25T04:14:00.277Z,73.00
2019-05-25T04:18:05.970Z,73.40
2019-05-25T04:22:11.670Z,73.90
2019-05-25T04:26:22.627Z,73.90
2019-05-25T04:30:24.976Z,73.50
2019-05-25T04:34:30.743Z,73.10
2019-05-25T04:38:36.494Z,73.40
2019-05-25T04:42:42.244Z,73.70
2019-05-25T04:46:47.963Z,73.80
2019-05-25T04:50:53.768Z,73.50
2019-05-25T04:54:59.618Z,74.00
2019-05-25T04:59:05.554Z,73.60
2019-05-25T05:03:11.239Z,72.70
2019-05-25T05:07:17.138Z,72.80
2019-05-25T05:11:23.021Z,71.90
2019-05-25T05:15:28.693Z,71.50
2019-05-25T05:19:34.919Z,71.50
2019-05-25T05:23:40.868Z,71.00
2019-05-25T05:27:46.578Z,71.00
2019-05-25T05:31:52.373Z,71.30
2019-05-25T05:36:00.116Z,71.20
2019-05-25T05:40:10.391Z,70.60
2019-05-25T05:44:19.283Z,71.20
2019-05-25T05:48:28.139Z,71.90
2019-05-25T05:52:37.882Z,70.40
2019-05-25T05:56:43.643Z,70.40
2019-05-25T06:00:49.748Z,70.00
2019-05-25T06:04:55.460Z,69.80
2019-05-25T06:09:01.367Z,69.60
2019-05-25T06:13:08.405Z,70.80
2019-05-25T06:17:14.088Z,69.10
2019-05-25T06:21:19.837Z,67.80
2019-05-25T06:25:25.587Z,66.80
2019-05-25T06:29:31.602Z,64.90
2019-05-25T06:33:37.283Z,65.20
2019-05-25T06:37:43.111Z,64.90
2019-05-25T06:41:49.352Z,64.20
2019-05-25T06:45:55.029Z,64.00
2019-05-25T06:50:00.766Z,62.30
2019-05-25T06:54:06.542Z,61.50
2019-05-25T06:58:12.232Z,61.50
2019-05-25T07:02:18.040Z,60.50
2019-05-25T07:06:24.174Z,59.50
2019-05-25T07:10:30.022Z,58.10
2019-05-25T07:14:35.709Z,58.60
2019-05-25T07:18:41.571Z,56.90
2019-05-25T07:22:47.222Z,56.80
2019-05-25T07:26:52.978Z,55.30
2019-05-25T07:30:58.912Z,54.90
2019-05-25T07:35:07.379Z,54.50
2019-05-25T07:39:13.067Z,53.20
2019-05-25T07:43:18.758Z,53.00
2019-05-25T07:47:24.710Z,51.50
2019-05-25T07:51:30.685Z,50.80
2019-05-25T07:55:36.572Z,49.90
2019-05-25T07:59:42.257Z,50.60
2019-05-25T08:03:48.014Z,50.60
2019-05-25T08:07:54.267Z,50.70
2019-05-25T08:12:00.833Z,50.20
2019-05-25T08:16:06.821Z,49.50
2019-05-25T08:20:13.529Z,48.70
2019-05-25T08:24:19.369Z,47.60
2019-05-25T08:28:32.605Z,47.30
2019-05-25T08:32:32.468Z,46.70
2019-05-25T08:36:38.241Z,46.70
2019-05-25T08:40:44.165Z,45.90
2019-05-25T08:44:49.931Z,45.50
2019-05-25T08:48:55.607Z,45.00
2019-05-25T08:53:01.307Z,44.90
2019-05-25T08:57:07.267Z,44.50
2019-05-25T09:01:13.068Z,44.40
2019-05-25T09:05:18.991Z,43.50
2019-05-25T09:09:24.750Z,43.10
2019-05-25T09:13:30.784Z,42.80
2019-05-25T09:17:36.603Z,42.60
2019-05-25T09:21:42.981Z,41.90
2019-05-25T09:25:48.643Z,41.40
2019-05-25T09:29:55.410Z,40.80
2019-05-25T09:34:01.097Z,40.50
2019-05-25T09:38:06.933Z,39.50
2019-05-25T09:42:12.648Z,38.90
2019-05-25T09:46:18.531Z,38.80
2019-05-25T09:50:24.375Z,37.90
2019-05-25T09:54:30.260Z,37.10
2019-05-25T09:58:36.061Z,38.20
2019-05-25T10:02:42.561Z,40.30
2019-05-25T10:06:48.889Z,41.70
2019-05-25T10:10:54.647Z,42.60
2019-05-25T10:15:00.341Z,43.20
2019-05-25T10:19:06.245Z,43.90
2019-05-25T10:23:12.002Z,44.50
2019-05-25T10:27:17.696Z,44.90
2019-05-25T10:31:23.390Z,45.60
2019-05-25T10:35:29.303Z,45.90
2019-05-25T10:39:34.968Z,46.70
2019-05-25T10:43:40.673Z,47.30
2019-05-25T10:47:46.423Z,47.90
2019-05-25T10:51:52.117Z,48.60
2019-05-25T10:55:57.964Z,50.00
2019-05-25T11:00:05.624Z,51.00
2019-05-25T11:04:11.493Z,53.50
2019-05-25T11:08:18.406Z,57.30
2019-05-25T11:12:26.143Z,58.90
2019-05-25T11:16:31.785Z,59.20
2019-05-25T11:20:38.690Z,57.40
2019-05-25T11:24:44.381Z,59.30
2019-05-25T11:28:50.133Z,58.90
2019-05-25T11:32:55.829Z,59.30
2019-05-25T11:37:02.081Z,56.50
2019-05-25T11:41:07.912Z,55.30
2019-05-25T11:45:15.316Z,53.80
2019-05-25T11:49:22.799Z,52.50
2019-05-25T11:53:28.487Z,47.70
2019-05-25T11:57:34.229Z,46.10
2019-05-25T12:01:39.925Z,46.20
2019-05-25T12:05:45.643Z,42.60
2019-05-25T12:09:51.557Z,42.50
2019-05-25T12:13:57.250Z,39.10
2019-05-25T12:18:03.585Z,38.20
2019-05-25T12:22:10.414Z,36.70
2019-05-25T12:26:16.264Z,35.20
2019-05-25T12:30:37.876Z,35.90
2019-05-25T12:34:31.280Z,36.00
2019-05-25T12:38:36.970Z,35.10
2019-05-25T12:42:45.715Z,33.90
2019-05-25T12:46:50.158Z,33.70
2019-05-25T12:50:55.833Z,32.70
2019-05-25T12:55:01.646Z,33.00
2019-05-25T12:59:12.061Z,33.80
2019-05-25T13:03:19.746Z,33.10
2019-05-25T13:07:25.420Z,32.50
2019-05-25T13:11:31.192Z,34.00
2019-05-25T13:15:37.011Z,35.60
2019-05-25T13:19:42.697Z,36.50
2019-05-25T13:23:48.441Z,37.90
2019-05-25T13:27:54.133Z,38.40
2019-05-25T13:31:59.826Z,39.40
2019-05-25T13:36:05.822Z,39.10
2019-05-25T13:40:11.624Z,39.90
2019-05-25T13:44:17.320Z,40.80
2019-05-25T13:48:23.006Z,40.10
2019-05-25T13:52:28.719Z,41.20
2019-05-25T13:56:34.606Z,42.10
2019-05-25T14:00:40.341Z,42.90
2019-05-25T14:04:46.009Z,43.50
2019-05-25T14:08:51.854Z,44.30
2019-05-25T14:12:57.615Z,45.10
2019-05-25T14:17:03.326Z,45.50
2019-05-25T14:21:09.160Z,45.80
2019-05-25T14:25:15.150Z,46.30
2019-05-25T14:29:20.987Z,47.20
2019-05-25T14:33:26.819Z,49.20
2019-05-25T14:37:33.701Z,56.40
2019-05-25T14:41:39.406Z,62.60
2019-05-25T14:45:45.187Z,74.20
2019-05-25T14:49:51.061Z,77.20
2019-05-25T14:53:57.004Z,86.20
2019-05-25T14:58:04.112Z,90.60
2019-05-25T15:02:09.814Z,89.90
2019-05-25T15:06:15.527Z,86.80
2019-05-25T15:10:21.457Z,84.90
2019-05-25T15:14:27.127Z,91.20
2019-05-25T15:18:33.552Z,86.90
2019-05-25T15:22:39.230Z,90.00
2019-05-25T15:26:44.932Z,86.90
2019-05-25T15:30:50.594Z,86.70
2019-05-25T15:34:56.462Z,86.10
2019-05-25T15:39:02.128Z,83.00
2019-05-25T15:43:09.765Z,88.70
2019-05-25T15:47:15.624Z,89.20
2019-05-25T15:51:21.375Z,92.40
2019-05-25T15:55:27.165Z,89.20
2019-05-25T15:59:33.028Z,88.90
2019-05-25T16:03:38.772Z,85.10
2019-05-25T16:07:49.309Z,87.60
2019-05-25T16:11:56.195Z,89.40
2019-05-25T16:16:01.939Z,87.90
2019-05-25T16:20:08.352Z,87.60
2019-05-25T16:24:14.098Z,87.10
2019-05-25T16:28:19.848Z,85.40
2019-05-25T16:32:25.551Z,82.60
2019-05-25T16:36:31.244Z,81.70
2019-05-25T16:40:37.126Z,84.20
2019-05-25T16:44:43.213Z,82.00
2019-05-25T16:48:48.916Z,82.00
2019-05-25T16:52:55.159Z,81.30
2019-05-25T16:57:00.904Z,83.10
2019-05-25T17:01:06.602Z,83.80
2019-05-25T17:05:13.132Z,82.90
2019-05-25T17:09:19.243Z,81.20
2019-05-25T17:13:24.944Z,81.70
2019-05-25T17:17:31.614Z,81.40
2019-05-25T17:21:37.510Z,82.80
2019-05-25T17:25:43.673Z,84.40
2019-05-25T17:29:49.360Z,86.20
2019-05-25T17:33:55.436Z,87.90
2019-05-25T17:38:01.116Z,86.30
2019-05-25T17:42:06.903Z,84.90
2019-05-25T17:46:12.568Z,83.20
2019-05-25T17:50:18.424Z,88.20
2019-05-25T17:54:24.122Z,89.00
2019-05-25T17:58:29.801Z,86.90
2019-05-25T18:02:35.613Z,89.40
2019-05-25T18:06:41.317Z,89.00
2019-05-25T18:10:53.294Z,87.80
2019-05-25T18:14:55.736Z,85.90
2019-05-25T18:19:01.478Z,85.40
2019-05-25T18:23:07.320Z,84.30
2019-05-25T18:27:12.991Z,83.90
2019-05-25T18:31:18.749Z,85.50
2019-05-25T18:35:24.407Z,86.70
2019-05-25T18:39:30.109Z,86.80
2019-05-25T18:43:35.829Z,84.70
2019-05-25T18:47:41.524Z,84.70
2019-05-25T18:51:47.203Z,85.00
2019-05-25T18:55:52.903Z,85.80
2019-05-25T18:59:58.674Z,85.50
2019-05-25T19:04:04.449Z,85.90
2019-05-25T19:08:10.254Z,86.60
2019-05-25T19:12:15.952Z,86.00
2019-05-25T19:16:21.773Z,84.70
2019-05-25T19:20:27.680Z,84.30
2019-05-25T19:24:33.471Z,84.10
2019-05-25T19:28:39.153Z,84.90
2019-05-25T19:32:44.888Z,84.70
2019-05-25T19:36:50.605Z,84.20
2019-05-25T19:40:56.263Z,84.10
2019-05-25T19:45:02.145Z,82.60
2019-05-25T19:49:08.050Z,84.20
2019-05-25T19:53:13.873Z,84.30
2019-05-25T19:57:19.745Z,84.00
2019-05-25T20:01:25.462Z,84.40
2019-05-25T20:05:32.153Z,81.80
2019-05-25T20:09:37.858Z,81.90
2019-05-25T20:13:43.644Z,82.90
2019-05-25T20:17:49.330Z,84.60
2019-05-25T20:21:55.050Z,84.70
2019-05-25T20:26:00.865Z,84.50
2019-05-25T20:30:10.392Z,84.50
2019-05-25T20:34:16.187Z,84.30
2019-05-25T20:38:21.986Z,84.20
2019-05-25T20:42:27.678Z,83.70
2019-05-25T20:46:33.355Z,83.10
2019-05-25T20:50:39.097Z,82.60
2019-05-25T20:54:44.845Z,81.80
2019-05-25T20:58:50.534Z,80.30
2019-05-25T21:03:05.918Z,79.90
2019-05-25T21:07:03.716Z,79.90
2019-05-25T21:11:09.382Z,79.80
2019-05-25T21:15:16.710Z,80.70
2019-05-25T21:19:22.466Z,81.10
2019-05-25T21:23:28.175Z,81.50
2019-05-25T21:27:33.854Z,81.60
2019-05-25T21:31:39.645Z,81.90
2019-05-25T21:35:45.306Z,82.00
2019-05-25T21:39:51.006Z,81.10
2019-05-25T21:43:56.688Z,81.70
2019-05-25T21:48:02.392Z,81.80
2019-05-25T21:52:08.076Z,82.00
2019-05-25T21:56:13.773Z,81.30
2019-05-25T22:00:23.397Z,81.50
2019-05-25T22:04:30.703Z,82.90
2019-05-25T22:08:36.389Z,83.10
2019-05-25T22:12:42.094Z,82.00
2019-05-25T22:16:47.828Z,82.10
2019-05-25T22:20:53.513Z,82.30
2019-05-25T22:24:59.308Z,82.20
2019-05-25T22:29:05.213Z,81.40
2019-05-25T22:33:10.921Z,80.60
2019-05-25T22:37:16.589Z,80.60
2019-05-25T22:41:22.367Z,80.90
2019-05-25T22:45:28.068Z,81.90
2019-05-25T22:49:33.740Z,83.00
2019-05-25T22:53:39.491Z,83.20
2019-05-25T22:57:45.585Z,84.60
2019-05-25T23:01:51.339Z,86.80
2019-05-25T23:05:57.058Z,87.10
2019-05-25T23:10:03.221Z,86.20
2019-05-25T23:14:10.092Z,87.20
2019-05-25T23:18:17.658Z,88.10
2019-05-25T23:22:23.367Z,90.30
2019-05-25T23:26:29.068Z,88.80
2019-05-25T23:30:34.755Z,87.70
2019-05-25T23:34:40.425Z,87.40
2019-05-25T23:38:46.170Z,87.90
2019-05-25T23:42:52.076Z,88.90
2019-05-25T23:46:57.768Z,90.00
2019-05-25T23:51:03.493Z,89.70
2019-05-25T23:55:09.822Z,88.20
2019-05-25T23:59:15.723Z,87.80
